Time;durP1;ratioP1;P1;durP2;ratioP2;P2;SDS_P1;SDS_P2;PMS_P1;PMS_P2;Temp;Humidity;BMP_temperature;BMP_pressure;BME280_temperature;BME280_humidity;BME280_pressure;Samples;Min_cycle;Max_cycle;Signal;HPM_P1;HPM_P2
2023/01/07 00:00:11;;;;;;;48.25;29.60;;;9.70;99.90;;;;;;5049472;28;20438;-57
2023/01/07 00:02:37;;;;;;;50.25;29.00;;;9.80;99.90;;;;;;5053253;28;20088;-64
2023/01/07 00:05:05;;;;;;;49.42;29.30;;;9.80;99.90;;;;;;5048690;28;20102;-61
2023/01/07 00:07:31;;;;;;;49.15;28.77;;;9.90;99.90;;;;;;5067497;28;20122;-62
2023/01/07 00:09:58;;;;;;;48.92;29.52;;;9.90;99.90;;;;;;5050684;28;20139;-59
2023/01/07 00:12:25;;;;;;;50.33;28.85;;;9.90;99.90;;;;;;5070476;28;20538;-60
2023/01/07 00:14:53;;;;;;;45.42;28.02;;;9.90;99.90;;;;;;5067827;28;20056;-55
2023/01/07 00:17:20;;;;;;;49.20;29.70;;;10.00;99.90;;;;;;5065257;28;20454;-59
2023/01/07 00:19:47;;;;;;;46.85;28.63;;;10.00;99.90;;;;;;5052739;28;20476;-62
2023/01/07 00:22:13;;;;;;;47.92;28.45;;;10.00;99.90;;;;;;5069921;28;20131;-61
2023/01/07 00:24:40;;;;;;;41.47;26.95;;;10.00;99.90;;;;;;5070904;28;20132;-62
2023/01/07 00:27:07;;;;;;;42.42;27.40;;;10.00;99.90;;;;;;5051532;28;20082;-58
2023/01/07 00:29:34;;;;;;;47.03;27.77;;;10.00;99.90;;;;;;5069262;28;20127;-56
2023/01/07 00:32:02;;;;;;;45.05;25.55;;;10.10;99.90;;;;;;5054022;28;20385;-60
2023/01/07 00:34:29;;;;;;;40.55;26.92;;;10.10;99.90;;;;;;5069610;28;20450;-55
2023/01/07 00:37:48;;;;;;;42.63;26.98;;;10.10;99.90;;;;;;5071443;28;20052;-60
2023/01/07 00:39:43;;;;;;;44.20;27.15;;;10.10;99.90;;;;;;5071565;28;20048;-62
2023/01/07 00:44:54;;;;;;;40.78;25.95;;;10.20;99.90;;;;;;5056252;28;20052;-57
2023/01/07 00:47:22;;;;;;;41.17;27.58;;;10.20;99.90;;;;;;5071294;28;20045;-61
2023/01/07 00:49:49;;;;;;;43.65;27.77;;;10.20;99.90;;;;;;5071736;28;20087;-59
2023/01/07 00:52:15;;;;;;;43.47;27.35;;;10.20;99.90;;;;;;5071071;28;20076;-54
2023/01/07 00:54:42;;;;;;;45.85;28.85;;;10.20;99.90;;;;;;5055422;28;20136;-44
2023/01/07 00:57:11;;;;;;;40.72;27.33;;;10.30;99.90;;;;;;5052932;28;20083;-58
2023/01/07 00:59:38;;;;;;;42.90;27.67;;;10.30;99.90;;;;;;5057357;28;20079;-60
2023/01/07 01:02:05;;;;;;;45.80;28.45;;;10.30;99.90;;;;;;5074162;28;20445;-60
2023/01/07 01:04:34;;;;;;;52.05;29.20;;;10.30;99.90;;;;;;5074433;28;20094;-61
2023/01/07 01:07:01;;;;;;;44.53;28.13;;;10.30;99.90;;;;;;5072975;28;20091;-60
2023/01/07 01:09:28;;;;;;;46.33;29.13;;;10.40;99.90;;;;;;5074245;28;20087;-57
2023/01/07 01:11:54;;;;;;;44.10;28.70;;;10.40;99.90;;;;;;5074318;28;20442;-59
2023/01/07 01:14:21;;;;;;;42.38;27.70;;;10.40;99.90;;;;;;5072573;28;20072;-58
2023/01/07 01:16:48;;;;;;;43.92;28.67;;;10.40;99.90;;;;;;5047040;28;20076;-54
2023/01/07 01:19:15;;;;;;;43.17;27.85;;;10.40;99.90;;;;;;5045975;28;20094;-58
2023/01/07 01:21:43;;;;;;;44.70;27.83;;;10.40;99.90;;;;;;5073869;28;20466;-58
2023/01/07 01:24:10;;;;;;;46.83;28.23;;;10.40;99.90;;;;;;5057012;28;20090;-56
2023/01/07 01:26:37;;;;;;;39.08;27.95;;;10.40;99.90;;;;;;5065491;28;20084;-56
2023/01/07 01:29:03;;;;;;;43.40;28.77;;;10.50;99.90;;;;;;5061492;28;20114;-59
2023/01/07 01:31:30;;;;;;;44.28;28.50;;;10.50;99.90;;;;;;5052670;28;20106;-57
2023/01/07 01:33:58;;;;;;;39.50;27.90;;;10.50;99.90;;;;;;5071959;28;20045;-56
2023/01/07 01:36:25;;;;;;;39.95;28.73;;;10.50;99.90;;;;;;5043488;28;20064;-57
2023/01/07 01:38:53;;;;;;;39.33;27.13;;;10.60;99.90;;;;;;5036812;28;20071;-56
2023/01/07 01:41:20;;;;;;;38.45;27.17;;;10.60;99.90;;;;;;5045435;28;20063;-58
2023/01/07 01:43:47;;;;;;;37.17;26.52;;;10.60;99.90;;;;;;5055980;28;20123;-56
2023/01/07 01:46:16;;;;;;;39.08;26.63;;;10.60;99.90;;;;;;5074179;28;20052;-57
2023/01/07 01:48:46;;;;;;;37.30;26.95;;;10.60;99.90;;;;;;5072729;28;20459;-55
2023/01/07 01:51:13;;;;;;;37.53;27.00;;;10.60;99.90;;;;;;5072786;28;20275;-55
2023/01/07 01:53:40;;;;;;;39.67;27.83;;;10.60;99.90;;;;;;5073061;28;20164;-51
2023/01/07 01:56:10;;;;;;;36.17;26.63;;;10.70;99.90;;;;;;5071910;28;20045;-55
2023/01/07 01:58:38;;;;;;;39.70;28.98;;;10.60;99.90;;;;;;5056097;28;20599;-55
2023/01/07 02:01:05;;;;;;;40.08;28.63;;;10.70;99.90;;;;;;5074189;28;20095;-55
2023/01/07 02:03:33;;;;;;;35.13;26.77;;;10.70;99.90;;;;;;5055397;28;20502;-55
2023/01/07 02:06:00;;;;;;;36.63;26.70;;;10.70;99.90;;;;;;5054927;28;20079;-56
2023/01/07 02:08:27;;;;;;;36.22;27.15;;;10.70;99.90;;;;;;5056169;28;20091;-56
2023/01/07 02:11:03;;;;;;;38.25;27.65;;;10.70;99.90;;;;;;5072607;28;20053;-52
2023/01/07 02:13:38;;;;;;;35.85;26.10;;;10.70;99.90;;;;;;5055489;28;20070;-57
2023/01/07 02:16:09;;;;;;;37.03;27.25;;;10.70;99.90;;;;;;5040448;28;20073;-55
2023/01/07 02:18:42;;;;;;;36.97;27.38;;;10.60;99.90;;;;;;5035604;28;20132;-48
2023/01/07 02:21:28;;;;;;;35.80;27.02;;;10.70;99.90;;;;;;5036217;28;20092;-52
2023/01/07 02:24:29;;;;;;;37.00;27.52;;;10.70;99.90;;;;;;5035945;28;20528;-54
2023/01/07 02:27:15;;;;;;;34.45;25.33;;;10.70;99.90;;;;;;5039769;28;20060;-56
2023/01/07 02:30:20;;;;;;;31.08;24.80;;;10.70;99.90;;;;;;5067372;28;20222;-56
2023/01/07 02:33:05;;;;;;;34.25;25.50;;;10.70;99.90;;;;;;5025723;28;20091;-55
2023/01/07 02:35:39;;;;;;;32.72;25.63;;;10.70;99.90;;;;;;5053509;28;20581;-52
2023/01/07 02:38:13;;;;;;;37.30;26.38;;;10.70;99.90;;;;;;5055329;28;20094;-53
2023/01/07 02:40:43;;;;;;;34.97;25.73;;;10.70;99.90;;;;;;5053838;28;20048;-56
2023/01/07 02:43:13;;;;;;;34.42;25.63;;;10.70;99.90;;;;;;5056039;28;20095;-57
2023/01/07 02:45:43;;;;;;;32.42;25.35;;;10.60;99.90;;;;;;5051900;28;20122;-54
2023/01/07 02:48:12;;;;;;;32.97;24.35;;;10.70;99.90;;;;;;5055551;28;20080;-54
2023/01/07 02:50:39;;;;;;;30.13;25.23;;;10.60;99.90;;;;;;5072651;28;20076;-55
2023/01/07 02:53:06;;;;;;;34.95;25.20;;;10.70;99.90;;;;;;5055473;28;20123;-53
2023/01/07 02:55:36;;;;;;;33.67;25.92;;;10.70;99.90;;;;;;5053824;28;20475;-56
2023/01/07 02:58:28;;;;;;;29.35;23.42;;;10.70;99.90;;;;;;5072434;28;20052;-55
2023/01/07 03:01:07;;;;;;;38.75;25.83;;;10.70;99.90;;;;;;5072612;28;20123;-55
2023/01/07 03:03:43;;;;;;;34.67;26.05;;;10.70;99.90;;;;;;5053711;28;20147;-55
2023/01/07 03:06:17;;;;;;;33.13;25.08;;;10.70;99.90;;;;;;5045624;28;20080;-55
2023/01/07 03:08:53;;;;;;;31.92;24.15;;;10.60;99.90;;;;;;5054480;28;20091;-50
2023/01/07 03:11:20;;;;;;;28.77;24.02;;;10.70;99.90;;;;;;5048470;28;20052;-56
2023/01/07 03:13:48;;;;;;;31.40;23.58;;;10.60;99.90;;;;;;5072668;28;20087;-55
2023/01/07 03:16:17;;;;;;;31.60;23.48;;;10.60;99.90;;;;;;5071876;28;20063;-54
2023/01/07 03:18:47;;;;;;;28.13;22.55;;;10.60;99.90;;;;;;5070428;28;20466;-56
2023/01/07 03:21:15;;;;;;;32.20;23.20;;;10.60;99.90;;;;;;5072217;28;20048;-52
2023/01/07 03:23:45;;;;;;;31.98;23.55;;;10.60;99.90;;;;;;5053730;28;20092;-53
2023/01/07 03:26:12;;;;;;;31.65;23.05;;;10.60;99.90;;;;;;5055165;28;20053;-56
2023/01/07 03:28:40;;;;;;;31.83;23.30;;;10.60;99.90;;;;;;5054303;28;20531;-55
2023/01/07 03:31:07;;;;;;;30.13;22.95;;;10.60;99.90;;;;;;5052556;28;20514;-51
2023/01/07 03:33:36;;;;;;;28.58;21.17;;;10.60;99.90;;;;;;5062339;28;20048;-56
2023/01/07 03:36:06;;;;;;;32.33;21.17;;;10.60;99.90;;;;;;5070974;28;20102;-54
2023/01/07 03:38:33;;;;;;;30.52;23.25;;;10.50;99.90;;;;;;5054577;28;20063;-55
2023/01/07 03:41:00;;;;;;;34.53;22.48;;;10.60;99.90;;;;;;5053676;28;20535;-56
2023/01/07 03:43:26;;;;;;;36.00;23.10;;;10.60;99.90;;;;;;5054493;28;20048;-56
2023/01/07 03:45:52;;;;;;;31.27;21.67;;;10.50;99.90;;;;;;5054722;28;20106;-55
2023/01/07 03:48:19;;;;;;;28.17;20.63;;;10.50;99.90;;;;;;5071835;28;20083;-54
2023/01/07 03:50:46;;;;;;;27.38;21.05;;;10.50;99.90;;;;;;5071813;28;20438;-56
2023/01/07 03:53:14;;;;;;;27.45;21.27;;;10.50;99.90;;;;;;5071544;28;20106;-56
2023/01/07 03:55:41;;;;;;;29.20;22.33;;;10.50;99.90;;;;;;5053033;28;20456;-52
2023/01/07 03:58:08;;;;;;;30.08;22.10;;;10.50;99.90;;;;;;5070991;28;20079;-53
2023/01/07 04:00:34;;;;;;;25.88;21.05;;;10.50;99.90;;;;;;5071974;28;20041;-55
2023/01/07 04:03:01;;;;;;;25.85;19.88;;;10.50;99.90;;;;;;5054214;28;20411;-56
2023/01/07 04:05:28;;;;;;;27.83;19.80;;;10.50;99.90;;;;;;5072261;28;20109;-55
2023/01/07 04:07:55;;;;;;;28.90;20.48;;;10.50;99.90;;;;;;5070633;28;20527;-53
2023/01/07 04:10:23;;;;;;;31.02;18.60;;;10.50;99.90;;;;;;5068011;28;20470;-55
2023/01/07 04:12:50;;;;;;;30.50;20.20;;;10.50;99.90;;;;;;5054248;28;20102;-56
2023/01/07 04:15:17;;;;;;;26.15;18.08;;;10.50;99.90;;;;;;5054057;28;20483;-56
2023/01/07 04:17:43;;;;;;;27.70;18.80;;;10.40;99.90;;;;;;5052582;28;20079;-55
2023/01/07 04:20:11;;;;;;;25.73;18.88;;;10.40;99.90;;;;;;5054348;28;20106;-56
2023/01/07 04:22:37;;;;;;;26.00;17.65;;;10.40;99.90;;;;;;5052865;28;20054;-56
2023/01/07 04:25:05;;;;;;;26.75;18.23;;;10.40;99.90;;;;;;5071261;28;20083;-56
2023/01/07 04:27:33;;;;;;;23.88;18.05;;;10.40;99.90;;;;;;5072242;28;20045;-56
2023/01/07 04:30:00;;;;;;;26.75;17.50;;;10.40;99.90;;;;;;5075405;28;20102;-53
2023/01/07 04:32:27;;;;;;;25.73;17.65;;;10.40;99.90;;;;;;5057862;28;20105;-54
2023/01/07 04:34:53;;;;;;;22.33;17.10;;;10.40;99.90;;;;;;5075772;28;20088;-55
2023/01/07 04:37:20;;;;;;;28.10;18.75;;;10.40;99.90;;;;;;5075518;28;20091;-55
2023/01/07 04:39:47;;;;;;;25.88;18.02;;;10.40;99.90;;;;;;5054769;28;20161;-52
2023/01/07 04:42:14;;;;;;;27.00;18.13;;;10.40;99.90;;;;;;5057804;28;20135;-56
2023/01/07 04:44:42;;;;;;;26.45;17.15;;;10.40;99.90;;;;;;5075535;28;20402;-56
2023/01/07 04:47:09;;;;;;;21.77;15.50;;;10.40;99.90;;;;;;5058115;28;20084;-56
2023/01/07 04:49:35;;;;;;;25.27;17.35;;;10.40;99.90;;;;;;5057894;28;20103;-55
2023/01/07 04:52:03;;;;;;;22.02;16.42;;;10.40;99.90;;;;;;5074032;28;20080;-56
2023/01/07 04:54:30;;;;;;;25.35;16.75;;;10.40;99.90;;;;;;5073789;28;20090;-56
2023/01/07 04:56:56;;;;;;;22.45;17.38;;;10.40;99.90;;;;;;5074006;28;20438;-55
2023/01/07 04:59:23;;;;;;;20.20;16.58;;;10.40;99.90;;;;;;5075088;28;20127;-55
2023/01/07 05:01:51;;;;;;;23.65;15.75;;;10.40;99.90;;;;;;5072537;28;20119;-56
2023/01/07 05:04:18;;;;;;;26.23;16.55;;;10.40;99.90;;;;;;5073680;28;20135;-56
2023/01/07 05:06:45;;;;;;;20.17;14.95;;;10.40;99.90;;;;;;5073076;28;20102;-56
2023/01/07 05:09:12;;;;;;;21.02;15.43;;;10.40;99.90;;;;;;5056631;28;20049;-54
2023/01/07 05:11:39;;;;;;;24.95;15.23;;;10.40;99.90;;;;;;5057039;28;20091;-56
2023/01/07 05:14:05;;;;;;;21.35;15.00;;;10.40;99.90;;;;;;5074156;28;20102;-57
2023/01/07 05:16:32;;;;;;;22.27;15.15;;;10.40;99.90;;;;;;5055885;28;20137;-55
2023/01/07 05:19:00;;;;;;;23.98;15.57;;;10.40;99.90;;;;;;5072154;28;20049;-51
2023/01/07 05:21:27;;;;;;;20.27;13.13;;;10.40;99.90;;;;;;5055686;28;20102;-53
2023/01/07 05:23:54;;;;;;;25.98;14.65;;;10.40;99.90;;;;;;5074921;28;20056;-56
2023/01/07 05:26:21;;;;;;;22.48;14.80;;;10.30;99.90;;;;;;5055416;28;20085;-55
2023/01/07 05:28:48;;;;;;;20.27;13.70;;;10.40;99.90;;;;;;5056685;28;20048;-55
2023/01/07 05:31:15;;;;;;;18.92;13.23;;;10.30;99.90;;;;;;5073022;28;20458;-55
2023/01/07 05:33:42;;;;;;;16.50;13.30;;;10.40;99.90;;;;;;5074762;28;20127;-56
2023/01/07 05:36:10;;;;;;;17.55;12.80;;;10.40;99.90;;;;;;5057086;28;20088;-56
2023/01/07 05:38:37;;;;;;;15.63;12.50;;;10.40;99.90;;;;;;5074084;28;20048;-53
2023/01/07 05:41:03;;;;;;;23.17;12.98;;;10.40;99.90;;;;;;5073200;28;20080;-55
2023/01/07 05:43:30;;;;;;;19.33;12.02;;;10.40;99.90;;;;;;5055306;28;20095;-54
2023/01/07 05:45:57;;;;;;;20.13;10.65;;;10.40;99.90;;;;;;5056265;28;20088;-56
2023/01/07 05:48:24;;;;;;;16.40;11.45;;;10.40;99.90;;;;;;5070907;28;20049;-55
2023/01/07 05:50:51;;;;;;;15.35;11.48;;;10.40;99.90;;;;;;5073522;28;20129;-56
2023/01/07 05:53:19;;;;;;;19.45;11.90;;;10.40;99.90;;;;;;5071411;28;20123;-56
2023/01/07 05:55:46;;;;;;;18.60;11.98;;;10.40;99.90;;;;;;5072311;28;20105;-54
2023/01/07 05:58:13;;;;;;;16.33;11.32;;;10.40;99.90;;;;;;5070277;28;20087;-54
2023/01/07 06:00:40;;;;;;;16.67;11.75;;;10.40;99.90;;;;;;5070719;28;20457;-54
2023/01/07 06:03:06;;;;;;;14.93;11.10;;;10.40;99.90;;;;;;5056592;28;20056;-55
2023/01/07 06:05:33;;;;;;;15.75;11.35;;;10.40;99.90;;;;;;5074040;28;20109;-56
2023/01/07 06:08:00;;;;;;;18.13;11.90;;;10.40;99.90;;;;;;5054314;28;20134;-52
2023/01/07 06:10:28;;;;;;;17.35;11.25;;;10.40;99.90;;;;;;5052566;28;20084;-55
2023/01/07 06:12:55;;;;;;;14.60;10.55;;;10.40;99.90;;;;;;5061587;28;20124;-51
2023/01/07 06:15:22;;;;;;;15.85;11.02;;;10.40;99.90;;;;;;5054500;28;20091;-55
2023/01/07 06:17:48;;;;;;;19.50;13.25;;;10.30;99.90;;;;;;5054708;28;20052;-55
2023/01/07 06:20:15;;;;;;;16.58;10.68;;;10.30;99.90;;;;;;5053295;28;20625;-54
2023/01/07 06:22:42;;;;;;;15.77;10.98;;;10.40;99.90;;;;;;5071477;28;20080;-54
2023/01/07 06:25:10;;;;;;;11.95;9.73;;;10.40;99.90;;;;;;5054531;28;20052;-54
2023/01/07 06:27:39;;;;;;;16.30;10.35;;;10.40;99.90;;;;;;5071596;28;20458;-56
2023/01/07 06:30:07;;;;;;;13.48;10.35;;;10.40;99.90;;;;;;5053604;28;20048;-54
2023/01/07 06:32:37;;;;;;;14.68;10.32;;;10.40;99.90;;;;;;5072484;28;20044;-54
2023/01/07 06:35:05;;;;;;;13.32;9.15;;;10.40;99.90;;;;;;5073383;28;20083;-54
2023/01/07 06:37:31;;;;;;;18.08;10.70;;;10.40;99.90;;;;;;5054881;28;20056;-56
2023/01/07 06:39:58;;;;;;;13.50;9.80;;;10.40;99.90;;;;;;5055520;28;20094;-56
2023/01/07 06:42:25;;;;;;;12.93;9.75;;;10.40;99.90;;;;;;5054532;28;20555;-57
2023/01/07 06:44:53;;;;;;;12.80;9.23;;;10.40;99.90;;;;;;5049023;28;20094;-56
2023/01/07 06:47:20;;;;;;;15.88;9.52;;;10.40;99.90;;;;;;5062980;28;20140;-56
2023/01/07 06:49:47;;;;;;;12.82;8.57;;;10.30;99.90;;;;;;5055295;28;20520;-56
2023/01/07 06:52:13;;;;;;;12.00;9.18;;;10.40;99.90;;;;;;5053903;28;20056;-56
2023/01/07 06:54:40;;;;;;;13.70;8.93;;;10.30;99.90;;;;;;5070790;28;20464;-56
2023/01/07 06:57:07;;;;;;;13.23;8.85;;;10.40;99.90;;;;;;5071459;28;20052;-51
2023/01/07 06:59:34;;;;;;;18.17;9.48;;;10.40;99.90;;;;;;5072145;28;20130;-57
2023/01/07 07:02:02;;;;;;;14.20;8.85;;;10.40;99.90;;;;;;5068072;28;20048;-56
2023/01/07 07:04:29;;;;;;;13.60;8.48;;;10.30;99.90;;;;;;5053518;28;20056;-54
2023/01/07 07:06:56;;;;;;;12.52;8.43;;;10.40;99.90;;;;;;5053522;28;20087;-56
2023/01/07 07:09:23;;;;;;;13.32;8.52;;;10.30;99.90;;;;;;5072085;28;20463;-53
2023/01/07 07:11:49;;;;;;;12.18;8.13;;;10.30;99.90;;;;;;5072940;28;20099;-57
2023/01/07 07:14:16;;;;;;;14.15;9.00;;;10.30;99.90;;;;;;5054310;28;20088;-57
2023/01/07 07:16:43;;;;;;;11.10;8.45;;;10.30;99.90;;;;;;5054128;28;20450;-54
2023/01/07 07:19:11;;;;;;;12.13;8.13;;;10.30;99.90;;;;;;5071995;28;20080;-56
2023/01/07 07:21:38;;;;;;;14.45;7.80;;;10.30;99.90;;;;;;5071117;28;20114;-56
2023/01/07 07:24:05;;;;;;;12.30;7.53;;;10.30;99.90;;;;;;5072716;28;20135;-53
2023/01/07 07:26:32;;;;;;;12.18;7.80;;;10.30;99.90;;;;;;5070436;28;20079;-56
2023/01/07 07:28:59;;;;;;;12.25;7.70;;;10.30;99.90;;;;;;5069415;28;20560;-50
2023/01/07 07:31:26;;;;;;;11.98;7.95;;;10.30;99.90;;;;;;5071842;28;20071;-57
2023/01/07 07:33:52;;;;;;;9.80;6.57;;;10.30;99.90;;;;;;5050801;28;20197;-57
2023/01/07 07:36:20;;;;;;;12.65;7.55;;;10.20;99.90;;;;;;5052666;28;20076;-54
2023/01/07 07:38:47;;;;;;;10.90;7.03;;;10.20;99.90;;;;;;5066042;28;20079;-46
2023/01/07 07:41:14;;;;;;;11.15;7.57;;;10.20;99.90;;;;;;5052223;28;20134;-54
2023/01/07 07:43:41;;;;;;;10.98;7.70;;;10.20;99.90;;;;;;5071510;28;20110;-56
2023/01/07 07:46:07;;;;;;;10.82;7.28;;;10.20;99.90;;;;;;5070871;28;20049;-56
2023/01/07 07:48:34;;;;;;;11.38;8.07;;;10.10;99.90;;;;;;5070854;28;20076;-58
2023/01/07 07:51:01;;;;;;;9.98;6.80;;;10.10;99.90;;;;;;5051369;28;20141;-56
2023/01/07 07:53:29;;;;;;;10.23;7.07;;;10.10;99.90;;;;;;5070355;28;20140;-56
2023/01/07 07:55:56;;;;;;;10.05;6.57;;;10.10;99.90;;;;;;5042033;28;20087;-53
2023/01/07 07:58:23;;;;;;;14.93;6.85;;;10.10;99.90;;;;;;5065426;28;20049;-57
2023/01/07 08:00:50;;;;;;;9.82;6.43;;;10.00;99.90;;;;;;5041241;28;20056;-52
2023/01/07 08:03:16;;;;;;;8.27;6.32;;;10.00;99.90;;;;;;5045663;28;20721;-53
2023/01/07 08:05:43;;;;;;;8.93;6.32;;;10.00;99.90;;;;;;5052077;28;20064;-56
2023/01/07 08:08:11;;;;;;;11.02;6.28;;;10.00;99.90;;;;;;5058248;28;20056;-54
2023/01/07 08:10:40;;;;;;;8.93;6.28;;;10.00;99.90;;;;;;5058292;28;20092;-56
2023/01/07 08:13:08;;;;;;;10.95;6.13;;;9.90;99.90;;;;;;5069314;28;20060;-55
2023/01/07 08:15:35;;;;;;;11.35;6.85;;;10.00;99.90;;;;;;5044100;28;20048;-57
2023/01/07 08:18:03;;;;;;;9.30;6.80;;;10.00;99.90;;;;;;5067990;28;20052;-56
2023/01/07 08:20:30;;;;;;;8.80;6.53;;;10.00;99.90;;;;;;5074617;28;20048;-56
2023/01/07 08:22:58;;;;;;;8.75;6.03;;;10.00;99.90;;;;;;5061893;28;20492;-52
2023/01/07 08:25:25;;;;;;;9.88;6.15;;;10.00;99.90;;;;;;5052648;28;20048;-56
2023/01/07 08:27:54;;;;;;;13.77;6.78;;;10.00;99.90;;;;;;5044584;28;20114;-56
2023/01/07 08:30:21;;;;;;;11.98;5.95;;;10.00;99.90;;;;;;5066508;28;20080;-56
2023/01/07 08:32:48;;;;;;;9.93;6.05;;;10.00;99.90;;;;;;5065786;28;20492;-55
2023/01/07 08:35:15;;;;;;;9.63;6.80;;;10.00;99.90;;;;;;5072226;28;20091;-56
2023/01/07 08:37:41;;;;;;;7.68;6.32;;;10.00;99.90;;;;;;5050601;28;20053;-57
2023/01/07 08:40:09;;;;;;;8.98;6.43;;;10.00;99.90;;;;;;5047483;28;20084;-57
2023/01/07 08:42:36;;;;;;;8.50;6.32;;;10.00;99.90;;;;;;5066038;28;20466;-55
2023/01/07 08:45:06;;;;;;;12.52;6.88;;;10.00;99.90;;;;;;5071971;28;20052;-57
2023/01/07 08:47:32;;;;;;;9.32;6.20;;;10.00;99.90;;;;;;5072400;28;20511;-45
2023/01/07 08:49:59;;;;;;;8.93;6.03;;;10.00;99.90;;;;;;5054303;28;20053;-57
2023/01/07 08:52:27;;;;;;;9.85;6.20;;;10.00;99.90;;;;;;5054683;28;20076;-57
2023/01/07 08:54:53;;;;;;;9.50;5.45;;;10.00;99.90;;;;;;5071380;28;20052;-56
2023/01/07 08:57:20;;;;;;;9.50;5.40;;;9.90;99.90;;;;;;5072797;28;20495;-53
2023/01/07 08:59:47;;;;;;;10.23;5.90;;;9.90;99.90;;;;;;5072234;28;20127;-53
2023/01/07 09:02:16;;;;;;;11.82;6.93;;;9.90;99.90;;;;;;5072627;28;20094;-56
2023/01/07 09:04:43;;;;;;;12.43;8.20;;;9.90;99.90;;;;;;5056391;28;20048;-54
2023/01/07 09:07:09;;;;;;;11.57;8.30;;;9.90;99.90;;;;;;5065934;28;20582;-55
2023/01/07 09:09:36;;;;;;;9.48;7.18;;;9.90;99.90;;;;;;5060442;28;20076;-56
2023/01/07 09:12:03;;;;;;;11.40;6.53;;;9.90;99.90;;;;;;5070052;28;20507;-56
2023/01/07 09:14:30;;;;;;;9.68;5.70;;;9.90;99.90;;;;;;5049154;28;20134;-58
2023/01/07 09:16:57;;;;;;;10.18;6.28;;;9.90;99.90;;;;;;5082399;28;20048;-57
2023/01/07 09:19:25;;;;;;;12.13;6.57;;;9.90;99.90;;;;;;5088084;28;20131;-57
2023/01/07 09:21:52;;;;;;;10.45;6.10;;;9.90;99.90;;;;;;5060691;28;20106;-57
2023/01/07 09:24:19;;;;;;;11.40;5.18;;;9.90;99.90;;;;;;5067795;28;20057;-57
2023/01/07 09:26:45;;;;;;;10.52;5.70;;;9.90;99.90;;;;;;5071624;28;20049;-41
2023/01/07 09:29:12;;;;;;;8.65;5.55;;;9.90;99.90;;;;;;5075052;28;20508;-54
2023/01/07 09:31:39;;;;;;;10.32;5.65;;;9.90;99.90;;;;;;5058592;28;20091;-56
2023/01/07 09:34:06;;;;;;;7.50;5.18;;;9.90;99.90;;;;;;5049459;28;20049;-53
2023/01/07 09:36:34;;;;;;;7.57;4.72;;;9.90;99.90;;;;;;5071203;28;20466;-53
2023/01/07 09:39:01;;;;;;;10.80;5.15;;;9.90;99.90;;;;;;5072128;28;20129;-54
2023/01/07 09:41:31;;;;;;;10.38;6.68;;;9.90;99.90;;;;;;5070671;28;20160;-55
2023/01/07 09:44:05;;;;;;;8.85;5.32;;;9.90;99.90;;;;;;5068180;28;20465;-57
2023/01/07 09:46:32;;;;;;;8.38;5.40;;;9.90;99.90;;;;;;5051832;28;20143;-56
2023/01/07 09:49:00;;;;;;;9.10;5.35;;;9.90;99.90;;;;;;5055109;28;20106;-50
2023/01/07 09:51:29;;;;;;;8.57;5.38;;;10.00;99.90;;;;;;5049964;28;20536;-56
2023/01/07 09:53:58;;;;;;;9.05;5.13;;;10.00;99.90;;;;;;5067138;28;20535;-56
2023/01/07 09:56:27;;;;;;;7.80;4.90;;;10.10;99.90;;;;;;5071120;28;20048;-56
2023/01/07 09:58:54;;;;;;;11.52;4.80;;;10.10;99.90;;;;;;5070552;28;20119;-56
2023/01/07 10:01:26;;;;;;;7.13;5.03;;;10.10;99.90;;;;;;5048814;28;20122;-42
2023/01/07 10:03:58;;;;;;;9.35;4.90;;;10.10;99.90;;;;;;5071211;28;20048;-56
2023/01/07 10:06:27;;;;;;;9.00;4.75;;;10.10;99.90;;;;;;5074613;28;20087;-48
2023/01/07 10:09:03;;;;;;;6.25;4.78;;;10.10;99.90;;;;;;5073049;28;20122;-57
2023/01/07 10:11:38;;;;;;;5.53;3.85;;;10.10;99.90;;;;;;5054545;28;20052;-54
2023/01/07 10:14:38;;;;;;;6.95;3.92;;;10.10;99.90;;;;;;5071934;28;20123;-56
2023/01/07 10:17:09;;;;;;;8.75;4.43;;;10.20;99.90;;;;;;5046968;28;20119;-55
2023/01/07 10:19:39;;;;;;;5.18;3.85;;;10.20;99.90;;;;;;5053218;28;20083;-57
2023/01/07 10:22:10;;;;;;;6.22;3.63;;;10.20;99.90;;;;;;5052841;28;20072;-55
2023/01/07 10:24:39;;;;;;;5.15;3.47;;;10.20;99.90;;;;;;5066638;28;20049;-57
2023/01/07 10:27:09;;;;;;;10.23;3.30;;;10.30;99.90;;;;;;5072671;28;20045;-57
2023/01/07 10:29:37;;;;;;;5.32;3.08;;;10.30;99.90;;;;;;5072051;28;20056;-57
2023/01/07 10:32:07;;;;;;;4.55;3.28;;;10.30;99.90;;;;;;5052434;28;20109;-57
2023/01/07 10:34:36;;;;;;;4.07;3.10;;;10.30;99.90;;;;;;5070046;28;20045;-57
2023/01/07 10:37:13;;;;;;;5.63;2.67;;;10.30;99.90;;;;;;5068804;28;20124;-57
2023/01/07 10:39:46;;;;;;;5.78;2.67;;;10.40;99.90;;;;;;5069007;28;20537;-56
2023/01/07 10:42:16;;;;;;;6.20;3.42;;;10.40;99.90;;;;;;5052305;28;20072;-51
2023/01/07 10:45:06;;;;;;;3.72;2.95;;;10.40;99.90;;;;;;5055359;28;20057;-57
2023/01/07 10:47:43;;;;;;;4.82;3.10;;;10.40;99.90;;;;;;5016197;28;20053;-42
2023/01/07 10:50:24;;;;;;;4.07;3.05;;;10.50;99.90;;;;;;5068620;28;20083;-56
2023/01/07 10:52:54;;;;;;;5.90;2.53;;;10.60;99.90;;;;;;5063811;28;20076;-56
2023/01/07 10:55:30;;;;;;;3.70;2.35;;;10.60;99.90;;;;;;5048797;28;20138;-50
2023/01/07 10:57:57;;;;;;;7.20;2.90;;;10.60;99.90;;;;;;5060005;28;20094;-55
2023/01/07 11:00:24;;;;;;;4.80;2.40;;;10.60;99.90;;;;;;5046188;28;20446;-56
2023/01/07 11:02:54;;;;;;;6.38;3.05;;;10.70;99.90;;;;;;5065991;28;20564;-53
2023/01/07 11:05:21;;;;;;;8.05;3.90;;;10.70;99.90;;;;;;5045375;28;20140;-56
2023/01/07 11:07:49;;;;;;;4.75;3.22;;;10.60;99.90;;;;;;5064286;28;20095;-54
2023/01/07 11:10:16;;;;;;;5.53;3.30;;;10.70;99.90;;;;;;5066409;28;20135;-55
2023/01/07 11:12:47;;;;;;;7.63;3.67;;;10.70;99.90;;;;;;5070228;28;20044;-56
2023/01/07 11:15:16;;;;;;;7.35;2.78;;;10.70;99.90;;;;;;5051566;28;20076;-56
2023/01/07 11:17:45;;;;;;;4.13;2.88;;;10.80;99.90;;;;;;5050809;28;20052;-55
2023/01/07 11:20:12;;;;;;;4.47;3.35;;;10.70;99.90;;;;;;5064721;28;20079;-55
2023/01/07 11:22:39;;;;;;;4.03;2.40;;;10.80;99.90;;;;;;5057442;28;20049;-55
2023/01/07 11:25:22;;;;;;;3.92;2.80;;;10.80;99.90;;;;;;5065546;28;20200;-55
2023/01/07 11:27:50;;;;;;;7.05;3.25;;;10.80;99.90;;;;;;5066631;28;20578;-53
2023/01/07 11:30:21;;;;;;;4.55;2.67;;;10.80;99.90;;;;;;5061170;28;20511;-56
2023/01/07 11:32:54;;;;;;;4.53;2.70;;;10.80;99.90;;;;;;5045197;28;20470;-56
2023/01/07 11:35:22;;;;;;;5.60;3.63;;;10.80;99.90;;;;;;5064238;28;20048;-56
2023/01/07 11:37:49;;;;;;;5.68;3.00;;;10.80;99.90;;;;;;5069715;28;20080;-53
2023/01/07 11:40:21;;;;;;;4.70;2.85;;;10.80;99.90;;;;;;5070454;28;20554;-55
2023/01/07 11:42:50;;;;;;;2.95;2.28;;;10.80;99.90;;;;;;5061735;28;20460;-55
2023/01/07 11:45:18;;;;;;;6.53;2.88;;;10.80;99.90;;;;;;5052752;28;20499;-52
2023/01/07 11:47:47;;;;;;;4.75;2.33;;;10.90;99.90;;;;;;5042928;28;20132;-51
2023/01/07 11:50:33;;;;;;;3.22;2.08;;;10.90;99.90;;;;;;5045068;28;20552;-56
2023/01/07 11:53:01;;;;;;;3.42;2.70;;;10.90;99.90;;;;;;5045456;28;20113;-53
2023/01/07 11:55:28;;;;;;;5.68;2.58;;;10.90;99.90;;;;;;5050038;28;20136;-56
2023/01/07 11:57:57;;;;;;;4.80;2.75;;;10.90;99.90;;;;;;5046123;28;20131;-55
2023/01/07 12:00:24;;;;;;;4.47;2.60;;;10.90;99.90;;;;;;5048333;28;20084;-56
2023/01/07 12:03:01;;;;;;;4.50;2.35;;;10.90;99.90;;;;;;5068293;28;20056;-55
2023/01/07 12:05:29;;;;;;;4.38;2.40;;;10.90;99.90;;;;;;5070206;28;20045;-56
2023/01/07 12:07:56;;;;;;;8.48;2.95;;;11.00;99.90;;;;;;5069118;28;20569;-56
2023/01/07 12:10:32;;;;;;;4.57;2.47;;;10.90;99.90;;;;;;5063558;28;21699;-56
2023/01/07 12:13:01;;;;;;;4.72;2.50;;;10.90;99.90;;;;;;5065930;28;20052;-55
2023/01/07 12:15:29;;;;;;;4.43;3.03;;;11.00;99.90;;;;;;5066710;28;20499;-55
2023/01/07 12:18:22;;;;;;;6.07;3.33;;;11.00;99.90;;;;;;5051873;28;20508;-57
2023/01/07 12:21:18;;;;;;;6.85;2.30;;;11.00;99.90;;;;;;5060266;28;20060;-53
2023/01/07 12:23:49;;;;;;;3.53;2.40;;;11.10;99.90;;;;;;5047093;28;20048;-55
2023/01/07 12:26:18;;;;;;;5.15;2.10;;;11.10;99.90;;;;;;5077578;28;20094;-48
2023/01/07 12:28:56;;;;;;;4.65;2.00;;;11.10;99.90;;;;;;5065607;28;20044;-56
2023/01/07 12:31:28;;;;;;;3.03;1.90;;;11.10;99.90;;;;;;5068944;28;20104;-48
2023/01/07 12:34:06;;;;;;;5.82;2.20;;;11.10;99.90;;;;;;5044711;28;20103;-56
2023/01/07 12:36:36;;;;;;;4.70;1.85;;;11.10;99.90;;;;;;5048626;28;20135;-55
2023/01/07 12:39:05;;;;;;;4.72;1.90;;;11.10;99.90;;;;;;5070360;28;20044;-55
2023/01/07 12:41:33;;;;;;;3.25;2.40;;;11.10;99.90;;;;;;5061838;28;20094;-55
2023/01/07 12:44:02;;;;;;;4.70;2.50;;;11.10;99.90;;;;;;5063152;28;20532;-55
2023/01/07 12:46:32;;;;;;;2.88;1.95;;;11.10;99.90;;;;;;5071100;28;20045;-56